createdAt,value
2022-10-29T00:02:26.064Z,98410.81
2022-10-29T00:04:52.710Z,98411.25
2022-10-29T00:07:19.318Z,98416.09
2022-10-29T00:09:45.972Z,98419.75
2022-10-29T00:12:12.573Z,98410.97
2022-10-29T00:14:39.158Z,98417.19
2022-10-29T00:17:05.800Z,98417.75
2022-10-29T00:19:32.415Z,98414.72
2022-10-29T00:21:59.028Z,98406.53
2022-10-29T00:24:25.622Z,98414.72
2022-10-29T00:26:52.244Z,98409.56
2022-10-29T00:29:18.865Z,98409.28
2022-10-29T00:31:45.552Z,98407.06
2022-10-29T00:34:12.196Z,98404.88
2022-10-29T00:36:38.824Z,98412.66
2022-10-29T00:39:05.444Z,98410.44
2022-10-29T00:41:32.046Z,98417.47
2022-10-29T00:43:58.636Z,98419.84
2022-10-29T00:46:25.322Z,98413.19
2022-10-29T00:48:51.978Z,98418.22
2022-10-29T00:51:18.684Z,98421.31
2022-10-29T00:53:45.260Z,98421.94
2022-10-29T00:56:11.912Z,98419.03
2022-10-29T00:58:38.527Z,98416.09
2022-10-29T01:01:05.145Z,98409.72
2022-10-29T01:03:31.729Z,98409.56
2022-10-29T01:05:58.321Z,98399.44
2022-10-29T01:08:24.942Z,98401.59
2022-10-29T01:10:51.543Z,98402.81
2022-10-29T01:13:18.153Z,98400.31
2022-10-29T01:15:44.807Z,98399.59
2022-10-29T01:18:11.430Z,98397.59
2022-10-29T01:20:39.972Z,98401.78
2022-10-29T01:23:06.563Z,98397.88
2022-10-29T01:25:33.191Z,98397.41
2022-10-29T01:27:59.925Z,98394.00
2022-10-29T01:30:26.630Z,98399.94
2022-10-29T01:32:53.386Z,98399.50
2022-10-29T01:35:20.237Z,98404.78
2022-10-29T01:37:46.841Z,98399.69
2022-10-29T01:40:13.425Z,98398.78
2022-10-29T01:42:40.061Z,98398.84
2022-10-29T01:45:06.709Z,98396.47
2022-10-29T01:47:33.301Z,98392.13
2022-10-29T01:49:59.943Z,98388.13
2022-10-29T01:52:26.602Z,98387.59
2022-10-29T01:54:53.224Z,98386.22
2022-10-29T01:57:19.815Z,98389.97
2022-10-29T01:59:55.524Z,98389.97
2022-10-29T02:02:22.838Z,98382.31
2022-10-29T02:04:49.456Z,98384.25
2022-10-29T02:07:16.060Z,98377.25
2022-10-29T02:09:42.693Z,98387.47
2022-10-29T02:12:09.314Z,98376.16
2022-10-29T02:14:35.917Z,98376.69
2022-10-29T02:17:02.538Z,98377.59
2022-10-29T02:19:29.140Z,98378.13
2022-10-29T02:21:55.783Z,98377.59
2022-10-29T02:24:22.427Z,98374.13
2022-10-29T02:26:49.009Z,98370.00
2022-10-29T02:29:15.618Z,98367.75
2022-10-29T02:31:42.253Z,98365.22
2022-10-29T02:34:08.861Z,98370.38
2022-10-29T02:36:35.476Z,98376.22
2022-10-29T02:39:02.061Z,98378.22
2022-10-29T02:41:28.674Z,98378.38
2022-10-29T02:43:55.286Z,98379.50
2022-10-29T02:46:21.873Z,98375.13
2022-10-29T02:48:48.491Z,98378.47
2022-10-29T02:51:15.083Z,98375.84
2022-10-29T02:53:41.697Z,98374.66
2022-10-29T02:58:52.292Z,98370.47
2022-10-29T03:01:19.048Z,98361.91
2022-10-29T03:03:45.739Z,98362.63
2022-10-29T03:06:12.350Z,98360.00
2022-10-29T03:08:38.971Z,98360.75
2022-10-29T03:11:05.568Z,98358.97
2022-10-29T03:13:32.232Z,98363.22
2022-10-29T03:15:58.880Z,98354.16
2022-10-29T03:18:25.493Z,98353.44
2022-10-29T03:20:52.137Z,98353.53
2022-10-29T03:23:18.721Z,98350.09
2022-10-29T03:25:45.329Z,98350.75
2022-10-29T03:28:11.937Z,98351.34
2022-10-29T03:30:38.537Z,98352.53
2022-10-29T03:33:05.138Z,98348.28
2022-10-29T03:35:31.823Z,98348.28
2022-10-29T03:37:58.442Z,98349.38
2022-10-29T03:40:25.048Z,98350.34
2022-10-29T03:42:51.647Z,98344.72
2022-10-29T03:45:18.241Z,98345.06
2022-10-29T03:47:44.863Z,98348.63
2022-10-29T03:52:55.699Z,98339.78
2022-10-29T03:55:22.994Z,98349.38
2022-10-29T03:57:49.615Z,98347.28
2022-10-29T04:00:16.210Z,98351.09
2022-10-29T04:02:42.929Z,98341.44
2022-10-29T04:05:09.617Z,98348.06
2022-10-29T04:07:36.213Z,98347.88
2022-10-29T04:10:02.845Z,98346.03
2022-10-29T04:12:29.438Z,98340.16
2022-10-29T04:14:56.032Z,98349.22
2022-10-29T04:17:22.643Z,98348.22
2022-10-29T04:19:49.274Z,98352.75
2022-10-29T04:28:42.001Z,98358.72
2022-10-29T04:30:35.716Z,98352.03
2022-10-29T04:33:02.334Z,98347.50
2022-10-29T04:35:29.004Z,98346.44
2022-10-29T04:37:55.675Z,98352.22
2022-10-29T04:40:22.336Z,98349.59
2022-10-29T04:45:33.071Z,98353.09
2022-10-29T04:47:59.710Z,98351.88
2022-10-29T04:50:26.333Z,98353.13
2022-10-29T04:52:52.940Z,98343.41
2022-10-29T04:55:19.584Z,98352.28
2022-10-29T04:57:46.185Z,98346.63
2022-10-29T05:00:17.793Z,98342.34
2022-10-29T05:02:45.522Z,98349.94
2022-10-29T05:05:12.189Z,98349.47
2022-10-29T05:07:38.847Z,98345.06
2022-10-29T05:10:05.443Z,98346.34
2022-10-29T05:12:32.063Z,98343.00
2022-10-29T05:14:58.665Z,98342.38
2022-10-29T05:17:25.285Z,98348.59
2022-10-29T05:19:51.889Z,98348.78
2022-10-29T05:22:18.501Z,98336.84
2022-10-29T05:24:45.127Z,98341.75
2022-10-29T05:27:11.742Z,98340.16
2022-10-29T05:29:38.364Z,98339.13
2022-10-29T05:32:05.022Z,98339.66
2022-10-29T05:34:31.646Z,98345.72
2022-10-29T05:36:58.292Z,98346.34
2022-10-29T05:39:24.925Z,98345.53
2022-10-29T05:41:52.192Z,98347.75
2022-10-29T05:44:18.822Z,98348.88
2022-10-29T05:46:45.419Z,98351.19
2022-10-29T05:49:12.014Z,98351.97
2022-10-29T05:51:38.659Z,98354.88
2022-10-29T05:54:05.253Z,98352.50
2022-10-29T05:56:31.870Z,98352.50
2022-10-29T05:58:58.498Z,98345.19
2022-10-29T06:01:25.161Z,98348.03
2022-10-29T06:06:19.358Z,98359.03
2022-10-29T06:11:29.976Z,98358.81
2022-10-29T06:13:56.620Z,98362.78
2022-10-29T06:16:23.217Z,98354.78
2022-10-29T06:18:49.849Z,98361.78
2022-10-29T06:21:16.481Z,98363.22
2022-10-29T06:23:43.119Z,98363.81
2022-10-29T06:26:09.768Z,98364.16
2022-10-29T06:28:36.422Z,98353.72
2022-10-29T06:31:03.049Z,98360.94
2022-10-29T06:33:29.698Z,98356.13
2022-10-29T06:35:56.336Z,98356.81
2022-10-29T06:38:22.981Z,98355.47
2022-10-29T06:40:49.578Z,98348.28
2022-10-29T06:43:16.307Z,98344.44
2022-10-29T06:45:42.915Z,98346.81
2022-10-29T06:48:09.531Z,98352.38
2022-10-29T06:50:36.147Z,98344.91
2022-10-29T06:53:02.806Z,98350.84
2022-10-29T06:55:29.440Z,98354.47
2022-10-29T06:57:56.070Z,98357.84
2022-10-29T07:00:22.680Z,98358.03
2022-10-29T07:02:49.360Z,98354.41
2022-10-29T07:05:15.963Z,98353.19
2022-10-29T07:07:42.628Z,98352.22
2022-10-29T07:10:09.254Z,98356.75
2022-10-29T07:12:35.889Z,98356.75
2022-10-29T07:15:02.479Z,98362.31
2022-10-29T07:17:29.106Z,98359.56
2022-10-29T07:19:55.749Z,98363.75
2022-10-29T07:22:22.365Z,98361.19
2022-10-29T07:24:48.950Z,98353.19
2022-10-29T07:27:15.596Z,98361.41
2022-10-29T07:29:42.230Z,98360.13
2022-10-29T07:32:08.864Z,98365.63
2022-10-29T07:34:35.454Z,98361.66
2022-10-29T07:37:02.066Z,98355.50
2022-10-29T07:39:28.689Z,98358.94
2022-10-29T07:41:58.314Z,98351.00
2022-10-29T07:44:26.054Z,98360.09
2022-10-29T07:46:52.650Z,98359.09
2022-10-29T07:49:19.290Z,98357.19
2022-10-29T07:51:45.892Z,98363.31
2022-10-29T07:54:14.887Z,98356.84
2022-10-29T07:56:45.125Z,98348.28
2022-10-29T07:59:14.319Z,98349.56
2022-10-29T08:01:41.143Z,98350.75
2022-10-29T08:04:07.922Z,98353.19
2022-10-29T08:06:34.543Z,98355.31
2022-10-29T08:09:01.145Z,98349.00
2022-10-29T08:11:27.781Z,98348.28
2022-10-29T08:13:54.428Z,98343.31
2022-10-29T08:16:21.051Z,98342.09
2022-10-29T08:18:47.684Z,98351.97
2022-10-29T08:21:14.316Z,98344.81
2022-10-29T08:23:40.964Z,98340.94
2022-10-29T08:26:07.650Z,98332.97
2022-10-29T08:28:35.883Z,98333.59
2022-10-29T08:31:02.647Z,98333.13
2022-10-29T08:33:29.264Z,98330.91
2022-10-29T08:35:55.866Z,98326.16
2022-10-29T08:38:22.506Z,98330.91
2022-10-29T08:40:49.135Z,98331.31
2022-10-29T08:43:15.724Z,98334.94
2022-10-29T08:45:42.380Z,98333.16
2022-10-29T08:48:09.007Z,98328.25
2022-10-29T08:50:35.624Z,98329.75
2022-10-29T08:53:22.309Z,98336.44
2022-10-29T08:55:48.858Z,98336.66
2022-10-29T08:58:15.482Z,98333.44
2022-10-29T09:00:42.232Z,98330.53
2022-10-29T09:03:08.895Z,98339.31
2022-10-29T09:05:35.524Z,98340.94
2022-10-29T09:08:02.519Z,98337.56
2022-10-29T09:10:29.302Z,98334.09
2022-10-29T09:12:56.153Z,98333.72
2022-10-29T09:15:23.029Z,98330.88
2022-10-29T09:17:49.615Z,98333.22
2022-10-29T09:20:16.201Z,98331.41
2022-10-29T09:22:42.833Z,98328.41
2022-10-29T09:25:09.562Z,98333.72
2022-10-29T09:27:36.208Z,98330.00
2022-10-29T09:30:02.813Z,98332.91
2022-10-29T09:32:29.460Z,98328.72
2022-10-29T09:34:56.121Z,98327.50
2022-10-29T09:37:22.735Z,98334.53
2022-10-29T09:39:49.448Z,98328.19
2022-10-29T09:42:16.086Z,98328.38
2022-10-29T09:44:42.713Z,98334.69
2022-10-29T09:47:09.978Z,98328.63
2022-10-29T09:49:36.734Z,98325.59
2022-10-29T09:52:03.547Z,98318.13
2022-10-29T09:54:30.223Z,98314.97
2022-10-29T09:57:04.510Z,98310.28
2022-10-29T09:59:31.166Z,98313.13
2022-10-29T10:01:57.818Z,98308.31
2022-10-29T10:04:24.501Z,98305.91
2022-10-29T10:06:51.131Z,98308.66
2022-10-29T10:09:17.719Z,98302.16
2022-10-29T10:14:10.881Z,98294.38
2022-10-29T10:16:37.506Z,98296.81
2022-10-29T10:19:04.105Z,98291.59
2022-10-29T10:21:30.743Z,98288.88
2022-10-29T10:23:57.339Z,98285.28
2022-10-29T10:26:24.052Z,98287.72
2022-10-29T10:28:50.675Z,98280.66
2022-10-29T10:31:17.263Z,98275.66
2022-10-29T10:33:43.875Z,98271.06
2022-10-29T10:36:12.765Z,98269.53
2022-10-29T10:38:39.383Z,98271.59
2022-10-29T10:41:06.071Z,98263.72
2022-10-29T10:43:32.704Z,98260.19
2022-10-29T10:45:59.323Z,98261.91
2022-10-29T10:48:30.980Z,98261.16
2022-10-29T10:51:00.113Z,98251.50
2022-10-29T10:53:26.739Z,98254.91
2022-10-29T10:55:53.402Z,98251.25
2022-10-29T10:58:20.004Z,98254.22
2022-10-29T11:00:46.640Z,98250.66
2022-10-29T11:03:13.388Z,98243.25
2022-10-29T11:05:40.059Z,98238.72
2022-10-29T11:08:06.673Z,98235.53
2022-10-29T11:10:33.316Z,98233.31
2022-10-29T11:12:59.928Z,98224.63
2022-10-29T11:15:26.547Z,98221.59
2022-10-29T11:17:54.539Z,98226.28
2022-10-29T11:20:21.346Z,98234.38
2022-10-29T11:22:47.955Z,98238.00
2022-10-29T11:25:14.580Z,98233.34
2022-10-29T11:27:41.215Z,98239.34
2022-10-29T11:30:07.836Z,98231.22
2022-10-29T11:32:34.453Z,98227.53
2022-10-29T11:35:01.045Z,98231.56
2022-10-29T11:37:27.654Z,98225.97
2022-10-29T11:39:54.274Z,98230.66
2022-10-29T11:42:20.896Z,98222.53
2022-10-29T11:44:47.544Z,98224.00
2022-10-29T11:47:14.140Z,98216.94
2022-10-29T11:49:40.823Z,98226.78
2022-10-29T11:52:07.512Z,98222.13
2022-10-29T11:54:34.156Z,98230.25
2022-10-29T11:57:00.756Z,98221.09
2022-10-29T11:59:27.382Z,98208.91
2022-10-29T12:01:54.060Z,98209.81
2022-10-29T12:04:23.983Z,98208.94
2022-10-29T12:06:51.195Z,98206.47
2022-10-29T12:09:17.834Z,98201.44
2022-10-29T12:11:44.471Z,98199.66
2022-10-29T12:14:11.074Z,98198.50
2022-10-29T12:16:37.717Z,98194.22
2022-10-29T12:19:04.339Z,98199.53
2022-10-29T12:21:30.933Z,98198.06
2022-10-29T12:23:57.519Z,98192.72
2022-10-29T12:26:24.827Z,98185.44
2022-10-29T12:28:51.483Z,98178.84
2022-10-29T12:31:18.085Z,98178.84
2022-10-29T12:33:44.741Z,98174.94
2022-10-29T12:36:11.511Z,98169.66
2022-10-29T12:38:38.150Z,98178.03
2022-10-29T12:41:04.765Z,98177.72
2022-10-29T12:43:31.425Z,98175.84
2022-10-29T12:48:44.605Z,98163.56
2022-10-29T12:51:11.220Z,98160.19
2022-10-29T12:53:37.810Z,98153.16
2022-10-29T12:56:04.438Z,98154.25
2022-10-29T12:58:31.058Z,98155.88
2022-10-29T13:00:57.773Z,98149.38
2022-10-29T13:03:24.493Z,98143.72
2022-10-29T13:05:51.182Z,98146.41
2022-10-29T13:08:17.777Z,98143.47
2022-10-29T13:10:44.419Z,98137.78
2022-10-29T13:13:11.019Z,98144.56
2022-10-29T13:15:37.624Z,98147.78
2022-10-29T13:18:04.266Z,98139.94
2022-10-29T13:23:15.011Z,98141.56
2022-10-29T13:25:41.604Z,98144.53
2022-10-29T13:28:08.239Z,98138.34
2022-10-29T13:30:34.891Z,98144.81
2022-10-29T13:33:01.528Z,98139.38
2022-10-29T13:35:28.130Z,98142.28
2022-10-29T13:37:54.782Z,98144.44
2022-10-29T13:40:21.397Z,98137.44
2022-10-29T13:42:47.995Z,98141.72
2022-10-29T13:45:14.604Z,98140.41
2022-10-29T13:47:41.206Z,98135.78
2022-10-29T13:50:07.854Z,98133.63
2022-10-29T13:52:40.274Z,98139.34
2022-10-29T13:55:06.894Z,98132.84
2022-10-29T13:57:33.525Z,98137.97
2022-10-29T14:00:00.145Z,98137.72
2022-10-29T14:02:26.923Z,98139.84
2022-10-29T14:04:53.629Z,98139.06
2022-10-29T14:07:20.250Z,98140.66
2022-10-29T14:09:46.881Z,98132.06
2022-10-29T14:12:13.531Z,98122.88
2022-10-29T14:14:40.151Z,98116.63
2022-10-29T14:17:06.807Z,98120.13
2022-10-29T14:19:33.471Z,98128.59
2022-10-29T14:22:00.063Z,98118.94
2022-10-29T14:24:26.734Z,98119.22
2022-10-29T14:26:53.319Z,98109.69
2022-10-29T14:29:19.966Z,98118.13
2022-10-29T14:31:46.573Z,98125.75
2022-10-29T14:34:13.189Z,98131.34
2022-10-29T14:36:39.805Z,98128.09
2022-10-29T14:39:06.389Z,98119.81
2022-10-29T14:41:32.968Z,98137.72
2022-10-29T14:43:59.635Z,98125.28
2022-10-29T14:46:26.250Z,98123.72
2022-10-29T14:48:52.890Z,98125.31
2022-10-29T14:51:19.486Z,98122.31
2022-10-29T14:53:46.124Z,98123.66
2022-10-29T14:56:12.726Z,98123.16
2022-10-29T14:58:39.367Z,98125.03
2022-10-29T15:01:06.097Z,98122.97
2022-10-29T15:03:32.914Z,98116.94
2022-10-29T15:05:59.647Z,98120.66
2022-10-29T15:08:26.276Z,98123.25
2022-10-29T15:10:52.921Z,98120.00
2022-10-29T15:13:19.511Z,98133.09
2022-10-29T15:15:46.166Z,98129.53
2022-10-29T15:18:12.776Z,98127.28
2022-10-29T15:20:39.390Z,98125.44
2022-10-29T15:23:05.978Z,98125.31
2022-10-29T15:25:32.606Z,98126.59
2022-10-29T15:27:59.387Z,98120.41
2022-10-29T15:30:26.264Z,98121.00
2022-10-29T15:32:52.881Z,98122.22
2022-10-29T15:35:19.554Z,98124.50
2022-10-29T15:37:46.141Z,98124.69
2022-10-29T15:40:12.767Z,98134.94
2022-10-29T15:42:39.370Z,98129.19
2022-10-29T15:45:06.223Z,98129.38
2022-10-29T15:47:32.858Z,98138.91
2022-10-29T15:49:59.447Z,98135.16
2022-10-29T15:52:26.075Z,98137.06
2022-10-29T15:54:52.667Z,98148.09
2022-10-29T15:57:19.254Z,98139.63
2022-10-29T15:59:45.869Z,98131.59
2022-10-29T16:02:12.543Z,98139.34
2022-10-29T16:04:39.270Z,98139.84
2022-10-29T16:07:05.858Z,98136.50
2022-10-29T16:09:32.510Z,98143.75
2022-10-29T16:11:59.102Z,98145.16
2022-10-29T16:16:52.294Z,98141.34
2022-10-29T16:19:18.914Z,98145.66
2022-10-29T16:21:45.529Z,98151.63
2022-10-29T16:24:12.150Z,98155.81
2022-10-29T16:26:38.751Z,98159.06
2022-10-29T16:29:05.360Z,98154.91
2022-10-29T16:31:31.972Z,98156.97
2022-10-29T16:33:58.607Z,98160.66
2022-10-29T16:36:25.194Z,98156.97
2022-10-29T16:38:51.782Z,98157.88
2022-10-29T16:41:18.469Z,98159.16
2022-10-29T16:43:45.100Z,98154.75
2022-10-29T16:46:11.696Z,98158.75
2022-10-29T16:48:38.313Z,98153.88
2022-10-29T16:51:04.929Z,98154.09
2022-10-29T16:53:31.538Z,98159.78
2022-10-29T16:55:58.125Z,98163.19
2022-10-29T16:58:24.750Z,98161.53
2022-10-29T17:00:51.425Z,98164.66
2022-10-29T17:03:18.200Z,98166.84
2022-10-29T17:05:44.845Z,98170.97
2022-10-29T17:08:11.531Z,98168.41
2022-10-29T17:10:38.188Z,98167.69
2022-10-29T17:13:04.885Z,98176.59
2022-10-29T17:15:31.489Z,98172.50
2022-10-29T17:17:58.340Z,98172.56
2022-10-29T17:20:25.273Z,98175.47
2022-10-29T17:22:51.861Z,98170.22
2022-10-29T17:25:18.471Z,98170.28
2022-10-29T17:27:45.103Z,98167.69
2022-10-29T17:30:11.754Z,98168.75
2022-10-29T17:32:38.360Z,98175.00
2022-10-29T17:35:04.979Z,98178.09
2022-10-29T17:37:31.601Z,98176.13
2022-10-29T17:40:02.941Z,98182.41
2022-10-29T17:42:33.513Z,98182.53
2022-10-29T17:45:00.149Z,98184.66
2022-10-29T17:47:26.816Z,98188.13
2022-10-29T17:49:53.447Z,98181.03
2022-10-29T17:52:20.092Z,98190.88
2022-10-29T17:54:46.723Z,98193.97
2022-10-29T17:57:13.348Z,98193.16
2022-10-29T17:59:39.959Z,98192.56
2022-10-29T18:02:06.664Z,98192.56
2022-10-29T18:04:33.418Z,98190.63
2022-10-29T18:07:00.051Z,98193.47
2022-10-29T18:09:26.674Z,98198.16
2022-10-29T18:11:53.323Z,98191.59
2022-10-29T18:14:19.939Z,98197.75
2022-10-29T18:16:46.602Z,98193.59
2022-10-29T18:19:13.239Z,98191.38
2022-10-29T18:21:39.844Z,98187.84
2022-10-29T18:24:06.451Z,98193.53
2022-10-29T18:26:33.099Z,98185.34
2022-10-29T18:28:59.734Z,98184.09
2022-10-29T18:31:26.354Z,98188.81
2022-10-29T18:33:52.988Z,98180.28
2022-10-29T18:36:19.600Z,98180.72
2022-10-29T18:38:46.230Z,98178.03
2022-10-29T18:41:12.830Z,98166.78
2022-10-29T18:43:39.426Z,98174.59
2022-10-29T18:46:06.068Z,98177.69
2022-10-29T18:48:32.670Z,98172.84
2022-10-29T18:50:59.274Z,98177.56
2022-10-29T18:53:25.940Z,98167.78
2022-10-29T18:55:52.575Z,98178.47
2022-10-29T18:58:19.165Z,98177.84
2022-10-29T19:00:45.931Z,98178.66
2022-10-29T19:03:12.653Z,98171.28
2022-10-29T19:05:39.275Z,98175.84
2022-10-29T19:08:05.948Z,98178.81
2022-10-29T19:10:32.560Z,98170.50
2022-10-29T19:12:59.220Z,98169.53
2022-10-29T19:15:25.833Z,98168.50
2022-10-29T19:17:52.468Z,98166.84
2022-10-29T19:20:19.138Z,98170.31
2022-10-29T19:22:45.792Z,98168.84
2022-10-29T19:25:12.461Z,98162.94
2022-10-29T19:27:39.073Z,98165.03
2022-10-29T19:30:05.682Z,98159.72
2022-10-29T19:32:32.310Z,98166.47
2022-10-29T19:34:58.940Z,98164.00
2022-10-29T19:37:25.571Z,98165.88
2022-10-29T19:39:52.288Z,98159.97
2022-10-29T19:42:18.968Z,98171.41
2022-10-29T19:44:45.604Z,98168.16
2022-10-29T19:47:12.261Z,98166.69
2022-10-29T19:49:38.853Z,98166.69
2022-10-29T19:52:05.480Z,98162.03
2022-10-29T19:54:32.081Z,98166.34
2022-10-29T19:56:58.700Z,98160.22
2022-10-29T19:59:25.328Z,98161.06
2022-10-29T20:01:52.047Z,98170.66
2022-10-29T20:04:18.788Z,98162.53
2022-10-29T20:06:45.406Z,98164.53
2022-10-29T20:09:12.011Z,98160.28
2022-10-29T20:11:38.615Z,98164.34
2022-10-29T20:14:05.250Z,98158.88
2022-10-29T20:16:31.847Z,98165.63
2022-10-29T20:18:58.520Z,98168.91
2022-10-29T20:21:25.118Z,98171.16
2022-10-29T20:23:51.721Z,98171.16
2022-10-29T20:26:18.388Z,98161.75
2022-10-29T20:28:45.026Z,98166.47
2022-10-29T20:31:11.650Z,98162.16
2022-10-29T20:33:38.239Z,98165.84
2022-10-29T20:36:04.892Z,98163.59
2022-10-29T20:38:31.548Z,98164.63
2022-10-29T20:40:58.170Z,98167.31
2022-10-29T20:43:24.792Z,98164.25
2022-10-29T20:45:51.460Z,98164.84
2022-10-29T20:48:18.061Z,98156.66
2022-10-29T20:50:44.666Z,98164.22
2022-10-29T20:53:11.417Z,98161.56
2022-10-29T20:55:38.081Z,98160.16
2022-10-29T20:58:04.686Z,98157.88
2022-10-29T21:00:31.347Z,98152.34
2022-10-29T21:02:58.016Z,98156.66
2022-10-29T21:05:24.625Z,98154.38
2022-10-29T21:07:51.227Z,98146.44
2022-10-29T21:10:17.839Z,98156.03
2022-10-29T21:12:44.445Z,98146.03
2022-10-29T21:15:11.099Z,98154.38
2022-10-29T21:17:37.712Z,98142.34
2022-10-29T21:20:04.368Z,98149.72
2022-10-29T21:22:30.961Z,98143.56
2022-10-29T21:24:57.562Z,98145.00
2022-10-29T21:27:24.162Z,98141.94
2022-10-29T21:29:50.765Z,98141.50
2022-10-29T21:32:17.383Z,98143.97
2022-10-29T21:34:43.985Z,98138.66
2022-10-29T21:37:10.609Z,98136.81
2022-10-29T21:39:37.253Z,98132.97
2022-10-29T21:42:03.875Z,98135.38
2022-10-29T21:44:30.480Z,98144.16
2022-10-29T21:46:57.122Z,98136.16
2022-10-29T21:49:23.743Z,98127.16
2022-10-29T21:51:50.357Z,98136.34
2022-10-29T21:54:16.956Z,98135.66
2022-10-29T21:56:43.541Z,98127.66
2022-10-29T21:59:10.145Z,98130.03
2022-10-29T22:01:36.815Z,98120.19
2022-10-29T22:04:03.513Z,98123.47
2022-10-29T22:06:30.107Z,98125.31
2022-10-29T22:08:56.694Z,98120.22
2022-10-29T22:11:23.266Z,98126.75
2022-10-29T22:13:49.865Z,98119.28
2022-10-29T22:16:16.463Z,98124.31
2022-10-29T22:18:43.048Z,98130.91
2022-10-29T22:21:09.625Z,98127.91
2022-10-29T22:23:36.170Z,98122.84
2022-10-29T22:26:02.735Z,98128.03
2022-10-29T22:28:29.281Z,98117.06
2022-10-29T22:30:56.400Z,98121.28
2022-10-29T22:33:23.018Z,98121.53
2022-10-29T22:35:49.583Z,98118.81
2022-10-29T22:38:16.251Z,98118.75
2022-10-29T22:40:42.866Z,98117.47
2022-10-29T22:43:09.461Z,98113.81
2022-10-29T22:45:36.113Z,98116.00
2022-10-29T22:48:02.707Z,98110.06
2022-10-29T22:50:29.304Z,98111.44
2022-10-29T22:52:55.998Z,98113.44
2022-10-29T22:55:22.758Z,98109.63
2022-10-29T22:57:49.353Z,98102.16
2022-10-29T23:00:15.963Z,98103.78
2022-10-29T23:02:42.640Z,98109.13
2022-10-29T23:05:09.314Z,98107.22
2022-10-29T23:07:35.929Z,98116.75
2022-10-29T23:10:02.541Z,98116.16
2022-10-29T23:12:29.159Z,98114.72
2022-10-29T23:14:55.821Z,98113.94
2022-10-29T23:17:22.418Z,98108.41
2022-10-29T23:19:49.064Z,98109.00
2022-10-29T23:24:47.176Z,98104.03
2022-10-29T23:27:13.766Z,98100.88
2022-10-29T23:29:40.403Z,98102.84
2022-10-29T23:32:07.026Z,98104.47
2022-10-29T23:34:33.647Z,98107.91
2022-10-29T23:37:02.219Z,98102.78
2022-10-29T23:39:31.015Z,98097.47
2022-10-29T23:41:57.657Z,98099.13
2022-10-29T23:44:24.308Z,98097.66
2022-10-29T23:46:50.898Z,98091.13
2022-10-29T23:49:17.492Z,98093.38
2022-10-29T23:51:44.109Z,98094.44
2022-10-29T23:54:10.709Z,98089.94
2022-10-29T23:56:37.334Z,98091.19
2022-10-29T23:59:04.290Z,98093.75
